createdAt,value
2023-02-17T00:00:47.312Z,50.60
2023-02-17T00:03:28.764Z,50.30
2023-02-17T00:06:08.469Z,54.40
2023-02-17T00:08:45.783Z,50.10
2023-02-17T00:11:24.182Z,49.90
2023-02-17T00:13:56.297Z,54.20
2023-02-17T00:16:35.214Z,53.10
2023-02-17T00:19:26.601Z,54.70
2023-02-17T00:22:07.742Z,50.90
2023-02-17T00:24:45.684Z,52.40
2023-02-17T00:27:23.694Z,52.80
2023-02-17T00:30:01.863Z,51.00
2023-02-17T00:32:40.561Z,42.70
2023-02-17T00:35:18.655Z,53.10
2023-02-17T00:37:48.816Z,54.30
2023-02-17T00:40:22.403Z,49.20
2023-02-17T00:42:55.380Z,40.50
2023-02-17T00:45:30.217Z,51.10
2023-02-17T00:48:26.221Z,50.60
2023-02-17T00:50:56.492Z,42.60
2023-02-17T00:53:30.386Z,50.90
2023-02-17T00:56:09.209Z,53.20
2023-02-17T00:58:46.788Z,45.10
2023-02-17T01:01:24.707Z,53.50
2023-02-17T01:03:55.951Z,47.30
2023-02-17T01:06:37.897Z,53.50
2023-02-17T01:11:53.480Z,40.00
2023-02-17T01:14:31.216Z,51.70
2023-02-17T01:17:02.856Z,46.40
2023-02-17T01:19:34.375Z,51.80
2023-02-17T01:22:11.645Z,52.30
2023-02-17T01:24:49.432Z,51.20
2023-02-17T01:27:27.495Z,54.00
2023-02-17T01:30:05.467Z,56.00
2023-02-17T01:32:43.263Z,42.50
2023-02-17T01:35:20.793Z,52.80
2023-02-17T01:37:58.013Z,46.10
2023-02-17T01:40:28.957Z,57.80
2023-02-17T01:43:08.045Z,49.80
2023-02-17T01:45:53.356Z,51.50
2023-02-17T01:48:46.145Z,54.70
2023-02-17T01:51:32.515Z,54.40
2023-02-17T01:54:19.954Z,53.40
2023-02-17T01:56:53.158Z,48.50
2023-02-17T01:59:33.048Z,37.70
2023-02-17T02:02:06.112Z,47.90
2023-02-17T02:04:47.371Z,47.80
2023-02-17T02:07:30.259Z,51.40
2023-02-17T02:10:09.464Z,54.90
2023-02-17T02:12:46.861Z,57.90
2023-02-17T02:15:30.506Z,49.40
2023-02-17T02:18:26.860Z,46.10
2023-02-17T02:21:53.514Z,47.00
2023-02-17T02:24:57.382Z,42.70
2023-02-17T02:27:51.094Z,47.20
2023-02-17T02:31:10.642Z,48.60
2023-02-17T02:34:06.535Z,51.00
2023-02-17T02:37:23.847Z,50.80
2023-02-17T02:40:08.428Z,47.40
2023-02-17T02:42:47.316Z,53.20
2023-02-17T02:45:25.947Z,46.00
2023-02-17T02:48:03.556Z,44.90
2023-02-17T02:51:04.964Z,47.60
2023-02-17T02:54:20.826Z,49.20
2023-02-17T02:57:26.656Z,53.50
2023-02-17T03:00:15.038Z,52.20
2023-02-17T03:03:00.394Z,46.80
2023-02-17T03:06:11.848Z,49.10
2023-02-17T03:09:09.131Z,50.50
2023-02-17T03:11:48.689Z,49.40
2023-02-17T03:14:22.207Z,43.70
2023-02-17T03:16:55.986Z,43.90
2023-02-17T03:19:34.140Z,50.00
2023-02-17T03:22:33.176Z,42.70
2023-02-17T03:25:12.694Z,44.10
2023-02-17T03:27:50.869Z,46.80
2023-02-17T03:30:29.298Z,39.90
2023-02-17T03:33:00.897Z,45.60
2023-02-17T03:35:35.148Z,47.50
2023-02-17T03:38:13.706Z,49.30
2023-02-17T03:40:50.944Z,47.60
2023-02-17T03:43:28.761Z,48.20
2023-02-17T03:46:06.369Z,44.80
2023-02-17T03:48:43.690Z,38.90
2023-02-17T03:51:25.718Z,50.60
2023-02-17T03:54:02.957Z,48.90
2023-02-17T03:56:40.400Z,52.80
2023-02-17T03:59:18.011Z,45.50
2023-02-17T04:01:55.527Z,50.90
2023-02-17T04:04:32.668Z,40.50
2023-02-17T04:07:12.829Z,44.10
2023-02-17T04:09:51.282Z,49.20
2023-02-17T04:12:28.817Z,45.50
2023-02-17T04:14:59.402Z,43.30
2023-02-17T04:17:38.449Z,46.00
2023-02-17T04:20:15.835Z,48.90
2023-02-17T04:22:53.294Z,50.00
2023-02-17T04:25:30.962Z,47.10
2023-02-17T04:28:13.057Z,47.60
2023-02-17T04:30:53.928Z,40.20
2023-02-17T04:33:31.637Z,43.00
2023-02-17T04:36:10.201Z,42.00
2023-02-17T04:38:47.448Z,52.30
2023-02-17T04:41:26.457Z,46.00
2023-02-17T04:44:05.229Z,32.50
2023-02-17T04:46:43.106Z,44.90
2023-02-17T04:49:20.911Z,42.10
2023-02-17T04:51:57.867Z,42.50
2023-02-17T04:54:36.030Z,40.10
2023-02-17T04:57:14.688Z,47.50
2023-02-17T04:59:51.546Z,46.30
2023-02-17T05:02:21.901Z,48.20
2023-02-17T05:04:58.002Z,50.00
2023-02-17T05:07:35.825Z,51.30
2023-02-17T05:10:14.270Z,40.70
2023-02-17T05:12:53.165Z,40.50
2023-02-17T05:15:31.266Z,41.80
2023-02-17T05:18:10.591Z,45.50
2023-02-17T05:20:48.058Z,46.50
2023-02-17T05:23:25.947Z,45.30
2023-02-17T05:26:03.250Z,40.20
2023-02-17T05:28:41.135Z,37.10
2023-02-17T05:31:20.868Z,42.10
2023-02-17T05:33:58.422Z,49.80
2023-02-17T05:36:36.624Z,42.50
2023-02-17T05:39:14.372Z,45.90
2023-02-17T05:41:55.326Z,44.60
2023-02-17T05:44:40.929Z,35.30
2023-02-17T05:47:18.432Z,49.90
2023-02-17T05:49:56.392Z,48.90
2023-02-17T05:52:26.844Z,46.00
2023-02-17T05:55:00.261Z,39.30
2023-02-17T05:57:38.646Z,45.90
2023-02-17T06:00:17.497Z,41.00
2023-02-17T06:02:56.776Z,46.90
2023-02-17T06:05:34.642Z,48.80
2023-02-17T06:08:13.425Z,50.10
2023-02-17T06:10:51.092Z,45.30
2023-02-17T06:13:29.129Z,45.60
2023-02-17T06:16:07.611Z,47.00
2023-02-17T06:18:45.919Z,42.50
2023-02-17T06:21:24.056Z,42.10
2023-02-17T06:24:01.495Z,46.30
2023-02-17T06:26:39.930Z,46.40
2023-02-17T06:29:18.095Z,45.30
2023-02-17T06:31:56.535Z,47.30
2023-02-17T06:34:35.092Z,41.90
2023-02-17T06:37:05.632Z,48.50
2023-02-17T06:39:36.587Z,25.00
2023-02-17T06:42:15.065Z,43.00
2023-02-17T06:44:53.455Z,35.70
2023-02-17T06:47:31.898Z,40.20
2023-02-17T06:50:11.865Z,46.10
2023-02-17T06:52:49.773Z,42.80
2023-02-17T06:55:28.422Z,42.20
2023-02-17T06:58:08.919Z,50.20
2023-02-17T07:00:47.135Z,40.00
2023-02-17T07:03:25.296Z,25.00
2023-02-17T07:06:07.047Z,32.40
2023-02-17T07:08:45.500Z,39.00
2023-02-17T07:11:23.780Z,31.50
2023-02-17T07:14:03.299Z,46.80
2023-02-17T07:16:41.891Z,38.30
2023-02-17T07:19:20.694Z,44.80
2023-02-17T07:21:58.480Z,40.50
2023-02-17T07:24:37.430Z,49.90
2023-02-17T07:27:16.216Z,42.90
2023-02-17T07:29:47.462Z,43.90
2023-02-17T07:32:18.807Z,30.40
2023-02-17T07:34:56.968Z,40.10
2023-02-17T07:37:35.049Z,41.40
2023-02-17T07:40:14.517Z,47.90
2023-02-17T07:42:52.373Z,42.80
2023-02-17T07:45:22.592Z,41.20
2023-02-17T07:48:01.179Z,41.10
2023-02-17T07:50:39.858Z,40.90
2023-02-17T07:53:18.390Z,43.20
2023-02-17T07:55:56.277Z,32.60
2023-02-17T07:58:36.519Z,40.70
2023-02-17T08:01:08.873Z,43.10
2023-02-17T08:03:44.751Z,39.40
2023-02-17T08:06:24.209Z,33.80
2023-02-17T08:09:19.952Z,41.50
2023-02-17T08:12:18.692Z,32.90
2023-02-17T08:15:02.181Z,23.50
2023-02-17T08:17:41.327Z,39.50
2023-02-17T08:20:19.762Z,39.90
2023-02-17T08:22:57.348Z,37.50
2023-02-17T08:25:38.874Z,36.40
2023-02-17T08:30:54.427Z,39.40
2023-02-17T08:33:32.357Z,38.20
2023-02-17T08:36:12.440Z,36.00
2023-02-17T08:38:51.722Z,33.40
2023-02-17T08:41:39.776Z,35.70
2023-02-17T08:46:57.351Z,38.00
2023-02-17T08:49:34.041Z,43.20
2023-02-17T08:52:13.518Z,41.60
2023-02-17T08:54:53.158Z,37.80
2023-02-17T08:57:32.835Z,36.70
2023-02-17T09:00:06.707Z,41.50
2023-02-17T09:02:45.522Z,27.10
2023-02-17T09:05:21.067Z,36.70
2023-02-17T09:07:59.648Z,34.40
2023-02-17T09:10:37.893Z,40.30
2023-02-17T09:13:08.365Z,40.60
2023-02-17T09:15:46.600Z,37.50
2023-02-17T09:18:22.508Z,37.90
2023-02-17T09:21:01.472Z,40.90
2023-02-17T09:23:40.181Z,43.40
2023-02-17T09:26:20.152Z,38.50
2023-02-17T09:28:58.365Z,39.60
2023-02-17T09:31:34.712Z,30.50
2023-02-17T09:34:14.113Z,28.10
2023-02-17T09:36:52.388Z,35.10
2023-02-17T09:39:24.310Z,43.40
2023-02-17T09:42:02.336Z,37.80
2023-02-17T09:44:57.347Z,30.80
2023-02-17T09:47:46.748Z,38.80
2023-02-17T09:50:46.652Z,37.60
2023-02-17T09:53:49.460Z,39.30
2023-02-17T09:56:33.740Z,37.90
2023-02-17T09:59:46.936Z,37.50
2023-02-17T10:02:25.852Z,40.40
2023-02-17T10:05:09.498Z,41.90
2023-02-17T10:07:59.759Z,36.10
2023-02-17T10:11:24.336Z,35.80
2023-02-17T10:14:13.554Z,29.60
2023-02-17T10:17:11.128Z,41.40
2023-02-17T10:20:25.068Z,33.70
2023-02-17T10:23:35.921Z,33.70
2023-02-17T10:26:31.033Z,31.60
2023-02-17T10:29:22.470Z,35.90
2023-02-17T10:32:19.503Z,37.70
2023-02-17T10:35:15.909Z,32.70
2023-02-17T10:38:02.948Z,38.90
2023-02-17T10:40:41.067Z,35.90
2023-02-17T10:43:31.251Z,35.30
2023-02-17T10:46:11.414Z,41.20
2023-02-17T10:48:59.951Z,32.30
2023-02-17T10:51:40.358Z,38.30
2023-02-17T10:54:36.847Z,33.80
2023-02-17T10:57:14.654Z,41.10
2023-02-17T10:59:50.091Z,31.00
2023-02-17T11:02:46.741Z,37.50
2023-02-17T11:05:37.538Z,35.30
2023-02-17T11:08:48.502Z,29.30
2023-02-17T11:11:30.737Z,33.00
2023-02-17T11:14:30.889Z,36.70
2023-02-17T11:17:23.388Z,37.10
2023-02-17T11:20:08.629Z,38.30
2023-02-17T11:22:48.338Z,33.70
2023-02-17T11:25:36.257Z,41.10
2023-02-17T11:28:26.668Z,35.90
2023-02-17T11:31:07.760Z,33.90
2023-02-17T11:33:47.121Z,31.50
2023-02-17T11:36:33.262Z,35.20
2023-02-17T11:39:26.873Z,38.90
2023-02-17T11:42:03.846Z,33.60
2023-02-17T11:44:42.785Z,36.90
2023-02-17T11:47:34.147Z,36.30
2023-02-17T11:50:45.842Z,30.00
2023-02-17T11:53:49.772Z,35.90
2023-02-17T11:56:42.147Z,30.00
2023-02-17T11:59:49.270Z,35.70
2023-02-17T12:02:46.099Z,32.90
2023-02-17T12:05:55.420Z,32.10
2023-02-17T12:08:51.633Z,29.50
2023-02-17T12:11:53.436Z,35.50
2023-02-17T12:14:59.621Z,38.00
2023-02-17T12:17:49.993Z,29.50
2023-02-17T12:21:30.377Z,33.10
2023-02-17T12:24:34.690Z,30.20
2023-02-17T12:27:42.788Z,29.30
2023-02-17T12:30:51.231Z,38.30
2023-02-17T12:33:48.469Z,24.40
2023-02-17T12:36:30.920Z,39.40
2023-02-17T12:39:31.012Z,31.50
2023-02-17T12:42:18.814Z,30.10
2023-02-17T12:45:23.553Z,31.30
2023-02-17T12:48:31.582Z,38.70
2023-02-17T12:51:37.608Z,31.30
2023-02-17T12:54:51.910Z,33.20
2023-02-17T12:57:54.035Z,29.10
2023-02-17T13:01:10.182Z,30.10
2023-02-17T13:03:49.042Z,33.60
2023-02-17T13:06:45.532Z,28.70
2023-02-17T13:09:48.320Z,29.60
2023-02-17T13:12:27.782Z,28.40
2023-02-17T13:15:09.029Z,26.70
2023-02-17T13:18:03.579Z,25.40
2023-02-17T13:21:02.135Z,29.30
2023-02-17T13:23:48.563Z,21.50
2023-02-17T13:26:25.899Z,26.20
2023-02-17T13:29:46.172Z,26.90
2023-02-17T13:32:34.182Z,23.20
2023-02-17T13:35:29.162Z,25.90
2023-02-17T13:38:08.885Z,25.70
2023-02-17T13:40:45.453Z,25.20
2023-02-17T13:43:20.631Z,28.80
2023-02-17T13:46:06.698Z,22.30
2023-02-17T13:48:38.972Z,22.20
2023-02-17T13:51:32.594Z,22.50
2023-02-17T13:54:16.733Z,21.00
2023-02-17T13:56:58.259Z,24.50
2023-02-17T13:59:38.562Z,24.70
2023-02-17T14:02:35.906Z,22.30
2023-02-17T14:05:39.141Z,19.00
2023-02-17T14:08:30.666Z,28.90
2023-02-17T14:11:22.789Z,26.10
2023-02-17T14:13:58.293Z,18.50
2023-02-17T14:16:37.765Z,24.00
2023-02-17T14:19:18.978Z,31.80
2023-02-17T14:21:55.683Z,27.10
2023-02-17T14:24:40.066Z,35.20
2023-02-17T14:27:15.210Z,31.80
2023-02-17T14:29:54.269Z,31.40
2023-02-17T14:32:41.314Z,29.80
2023-02-17T14:35:22.638Z,28.70
2023-02-17T14:37:55.273Z,21.10
2023-02-17T14:40:32.208Z,25.60
2023-02-17T14:43:09.920Z,21.30
2023-02-17T14:45:47.777Z,23.20
2023-02-17T14:48:28.010Z,17.40
2023-02-17T14:51:08.380Z,21.90
2023-02-17T14:53:46.505Z,20.80
2023-02-17T14:56:38.173Z,20.80
2023-02-17T14:59:15.512Z,20.30
2023-02-17T15:01:53.710Z,19.80
2023-02-17T15:04:31.903Z,21.70
2023-02-17T15:07:12.289Z,20.10
2023-02-17T15:09:51.424Z,18.20
2023-02-17T15:12:29.370Z,24.60
2023-02-17T15:15:06.945Z,19.00
2023-02-17T15:17:44.920Z,22.60
2023-02-17T15:20:22.218Z,22.20
2023-02-17T15:23:00.631Z,17.80
2023-02-17T15:25:38.432Z,25.30
2023-02-17T15:28:19.894Z,22.30
2023-02-17T15:30:56.899Z,22.70
2023-02-17T15:33:34.222Z,22.70
2023-02-17T15:36:17.900Z,22.00
2023-02-17T15:39:00.429Z,18.90
2023-02-17T15:41:40.439Z,21.70
2023-02-17T15:44:49.192Z,27.10
2023-02-17T15:47:21.563Z,20.10
2023-02-17T15:49:57.866Z,19.90
2023-02-17T15:52:35.245Z,21.40
2023-02-17T15:55:13.167Z,21.10
2023-02-17T15:57:54.851Z,21.40
2023-02-17T16:00:36.878Z,24.10
2023-02-17T16:03:16.275Z,25.30
2023-02-17T16:05:53.898Z,19.50
2023-02-17T16:08:30.521Z,21.10
2023-02-17T16:11:07.300Z,21.30
2023-02-17T16:13:45.464Z,17.80
2023-02-17T16:16:33.178Z,22.30
2023-02-17T16:21:45.897Z,20.90
2023-02-17T16:24:22.281Z,16.00
2023-02-17T16:26:58.657Z,21.80
2023-02-17T16:29:34.922Z,19.10
2023-02-17T16:32:14.492Z,16.90
2023-02-17T16:34:52.510Z,15.00
2023-02-17T16:37:29.666Z,18.00
2023-02-17T16:40:01.129Z,15.30
2023-02-17T16:42:38.322Z,17.70
2023-02-17T16:45:35.565Z,15.30
2023-02-17T16:48:11.311Z,17.70
2023-02-17T16:50:41.641Z,18.50
2023-02-17T16:53:19.149Z,16.00
2023-02-17T16:55:58.113Z,15.20
2023-02-17T16:58:31.003Z,15.00
2023-02-17T17:01:13.128Z,15.20
2023-02-17T17:03:49.621Z,12.50
2023-02-17T17:06:32.146Z,17.30
2023-02-17T17:09:09.772Z,16.00
2023-02-17T17:11:46.684Z,12.20
2023-02-17T17:14:23.053Z,15.30
2023-02-17T17:17:05.249Z,12.80
2023-02-17T17:19:41.825Z,14.70
2023-02-17T17:22:18.937Z,16.10
2023-02-17T17:24:55.871Z,17.10
2023-02-17T17:27:26.985Z,16.30
2023-02-17T17:30:02.448Z,15.30
2023-02-17T17:32:40.319Z,16.60
2023-02-17T17:35:16.970Z,12.20
2023-02-17T17:37:54.322Z,13.10
2023-02-17T17:40:49.471Z,12.30
2023-02-17T17:43:23.978Z,12.00
2023-02-17T17:46:00.848Z,13.70
2023-02-17T17:48:37.643Z,12.70
2023-02-17T17:51:16.989Z,14.00
2023-02-17T17:53:54.959Z,13.40
2023-02-17T17:56:39.687Z,12.10
2023-02-17T17:59:17.929Z,14.30
2023-02-17T18:01:55.448Z,14.10
2023-02-17T18:04:33.704Z,12.20
2023-02-17T18:07:12.625Z,14.60
2023-02-17T18:09:49.107Z,12.60
2023-02-17T18:12:26.026Z,12.80
2023-02-17T18:15:04.768Z,12.50
2023-02-17T18:17:44.079Z,10.60
2023-02-17T18:20:21.936Z,10.70
2023-02-17T18:22:59.566Z,10.90
2023-02-17T18:25:36.768Z,10.90
2023-02-17T18:28:10.701Z,11.40
2023-02-17T18:30:43.814Z,9.60
2023-02-17T18:33:21.117Z,8.10
2023-02-17T18:35:58.914Z,9.90
2023-02-17T18:38:36.849Z,10.30
2023-02-17T18:41:25.674Z,11.90
2023-02-17T18:44:02.797Z,10.30
2023-02-17T18:46:40.779Z,11.90
2023-02-17T18:49:18.900Z,10.90
2023-02-17T18:51:56.056Z,8.80
2023-02-17T18:54:27.318Z,7.60
2023-02-17T18:57:06.193Z,8.40
2023-02-17T18:59:46.414Z,10.20
2023-02-17T19:02:26.784Z,11.60
2023-02-17T19:05:05.052Z,9.10
2023-02-17T19:07:42.470Z,9.00
2023-02-17T19:10:19.430Z,9.90
2023-02-17T19:12:49.558Z,10.90
2023-02-17T19:15:25.411Z,10.40
2023-02-17T19:18:03.192Z,9.90
2023-02-17T19:20:40.853Z,11.70
2023-02-17T19:23:20.360Z,11.40
2023-02-17T19:25:58.734Z,8.80
2023-02-17T19:28:37.240Z,10.30
2023-02-17T19:31:19.115Z,10.20
2023-02-17T19:33:57.543Z,11.20
2023-02-17T19:36:35.082Z,11.20
2023-02-17T19:39:13.079Z,10.20
2023-02-17T19:41:50.564Z,10.50
2023-02-17T19:44:30.627Z,7.10
2023-02-17T19:47:09.277Z,10.70
2023-02-17T19:49:43.817Z,11.00
2023-02-17T19:52:21.465Z,12.00
2023-02-17T19:54:51.596Z,9.90
2023-02-17T19:57:25.786Z,13.00
2023-02-17T20:00:03.161Z,11.60
2023-02-17T20:02:41.119Z,11.40
2023-02-17T20:05:18.829Z,11.80
2023-02-17T20:07:57.652Z,15.40
2023-02-17T20:10:34.821Z,11.60
2023-02-17T20:13:13.876Z,9.80
2023-02-17T20:15:59.260Z,12.60
2023-02-17T20:18:39.300Z,12.20
2023-02-17T20:21:23.147Z,12.80
2023-02-17T20:24:00.767Z,12.70
2023-02-17T20:26:42.579Z,12.20
2023-02-17T20:29:20.386Z,11.60
2023-02-17T20:31:58.297Z,14.60
2023-02-17T20:34:39.147Z,16.40
2023-02-17T20:37:17.313Z,12.50
2023-02-17T20:39:55.084Z,12.30
2023-02-17T20:42:33.163Z,12.60
2023-02-17T20:45:12.039Z,12.70
2023-02-17T20:47:48.148Z,12.60
2023-02-17T20:50:26.373Z,16.00
2023-02-17T20:53:04.904Z,11.50
2023-02-17T20:55:36.679Z,13.10
2023-02-17T20:58:12.655Z,12.20
2023-02-17T21:00:47.592Z,12.00
2023-02-17T21:03:26.028Z,11.90
2023-02-17T21:06:07.198Z,13.20
2023-02-17T21:08:45.723Z,10.90
2023-02-17T21:11:23.485Z,11.40
2023-02-17T21:13:55.107Z,7.40
2023-02-17T21:16:33.618Z,11.70
2023-02-17T21:19:11.801Z,10.20
2023-02-17T21:21:43.077Z,11.80
2023-02-17T21:24:21.740Z,12.80
2023-02-17T21:27:00.796Z,11.50
2023-02-17T21:29:32.451Z,13.00
2023-02-17T21:32:08.863Z,10.20
2023-02-17T21:34:45.987Z,9.50
2023-02-17T21:37:23.379Z,9.40
2023-02-17T21:40:00.368Z,8.70
2023-02-17T21:42:56.456Z,9.80
2023-02-17T21:45:29.740Z,9.00
2023-02-17T21:48:07.816Z,8.30
2023-02-17T21:50:45.154Z,9.40
2023-02-17T21:53:21.560Z,8.70
2023-02-17T21:56:00.038Z,8.30
2023-02-17T21:58:34.111Z,7.20
2023-02-17T22:01:13.216Z,5.90
2023-02-17T22:03:50.941Z,7.90
2023-02-17T22:06:31.265Z,6.50
2023-02-17T22:09:10.320Z,6.30
2023-02-17T22:11:49.016Z,4.70
2023-02-17T22:14:26.609Z,7.70
2023-02-17T22:17:03.459Z,5.30
2023-02-17T22:19:33.796Z,5.90
2023-02-17T22:22:10.512Z,7.20
2023-02-17T22:24:47.320Z,4.10
2023-02-17T22:27:25.218Z,4.60
2023-02-17T22:30:02.121Z,4.20
2023-02-17T22:32:40.611Z,4.20
2023-02-17T22:35:20.457Z,2.80
2023-02-17T22:37:58.868Z,4.40
2023-02-17T22:40:36.633Z,3.70
2023-02-17T22:43:13.743Z,3.00
2023-02-17T22:45:58.310Z,3.20
2023-02-17T22:48:36.067Z,2.80
2023-02-17T22:51:15.669Z,2.80
2023-02-17T22:53:53.859Z,3.30
2023-02-17T22:56:25.348Z,5.20
2023-02-17T22:58:58.954Z,3.60
2023-02-17T23:01:34.644Z,2.30
2023-02-17T23:04:12.999Z,2.80
2023-02-17T23:06:50.783Z,4.20
2023-02-17T23:09:28.308Z,3.90
2023-02-17T23:12:06.244Z,3.00
2023-02-17T23:14:43.538Z,3.70
2023-02-17T23:17:20.893Z,3.90
2023-02-17T23:19:58.185Z,2.40
2023-02-17T23:22:35.305Z,2.40
2023-02-17T23:25:13.881Z,2.50
2023-02-17T23:27:51.141Z,3.80
2023-02-17T23:33:28.773Z,3.20
2023-02-17T23:36:08.988Z,3.30
2023-02-17T23:38:46.764Z,4.40
2023-02-17T23:41:24.856Z,5.50
2023-02-17T23:44:01.686Z,4.10
2023-02-17T23:46:39.976Z,2.00
2023-02-17T23:49:22.640Z,3.40
2023-02-17T23:51:59.592Z,3.90
2023-02-17T23:54:36.539Z,4.60
2023-02-17T23:57:13.615Z,1.60
2023-02-17T23:59:50.972Z,3.90
